Time;durP1;ratioP1;P1;durP2;ratioP2;P2;SDS_P1;SDS_P2;PMS_P1;PMS_P2;Temp;Humidity;BMP_temperature;BMP_pressure;BME280_temperature;BME280_humidity;BME280_pressure;Samples;Min_cycle;Max_cycle;Signal;HPM_P1;HPM_P2
2022/11/06 00:01:40;;;;;;;0.88;0.65;;;20.10;78.30;;;;;;6272107;22;45384;-71
2022/11/06 00:04:07;;;;;;;2.90;0.60;;;20.10;77.90;;;;;;6273053;22;45377;-69
2022/11/06 00:06:46;;;;;;;3.30;1.00;;;20.10;77.90;;;;;;6271555;22;46532;-69
2022/11/06 00:09:14;;;;;;;2.13;0.80;;;20.10;77.90;;;;;;6271902;22;45354;-69
2022/11/06 00:11:42;;;;;;;1.23;0.60;;;20.10;78.10;;;;;;6272016;22;45256;-69
2022/11/06 00:14:09;;;;;;;2.22;0.70;;;20.10;78.00;;;;;;6272761;22;45274;-70
2022/11/06 00:16:38;;;;;;;1.23;0.73;;;20.10;78.00;;;;;;6271804;22;47462;-69
2022/11/06 00:19:05;;;;;;;3.03;0.98;;;20.00;78.00;;;;;;6271363;22;45395;-70
2022/11/06 00:21:32;;;;;;;1.85;0.68;;;20.00;77.30;;;;;;6272767;22;45245;-69
2022/11/06 00:24:04;;;;;;;3.17;0.75;;;20.00;78.00;;;;;;6271954;22;45271;-69
2022/11/06 00:26:31;;;;;;;1.10;0.80;;;20.00;77.70;;;;;;6272227;22;45228;-70
2022/11/06 00:28:59;;;;;;;1.83;0.60;;;20.00;77.70;;;;;;6271123;22;45215;-70
2022/11/06 00:31:28;;;;;;;2.33;0.80;;;20.00;77.30;;;;;;6272202;22;45245;-69
2022/11/06 00:33:57;;;;;;;1.02;0.73;;;20.00;78.00;;;;;;6272035;22;45232;-69
2022/11/06 00:36:25;;;;;;;1.73;0.60;;;20.00;78.00;;;;;;6272082;22;45188;-69
2022/11/06 00:38:53;;;;;;;1.48;0.75;;;20.00;78.10;;;;;;6270919;22;45430;-69
2022/11/06 00:41:21;;;;;;;2.17;0.63;;;20.00;78.30;;;;;;6271345;22;45181;-69
2022/11/06 00:43:49;;;;;;;1.73;0.80;;;20.00;78.20;;;;;;6271857;22;45207;-69
2022/11/06 00:46:16;;;;;;;2.00;0.60;;;20.00;78.20;;;;;;6271737;22;45396;-69
2022/11/06 00:48:43;;;;;;;1.60;0.82;;;20.00;78.30;;;;;;6272100;22;45282;-69
2022/11/06 00:51:12;;;;;;;1.15;0.60;;;20.00;78.20;;;;;;6271392;22;45403;-69
2022/11/06 00:53:40;;;;;;;0.65;0.60;;;20.00;78.00;;;;;;6272279;22;45410;-70
2022/11/06 00:56:09;;;;;;;1.02;0.60;;;20.00;78.20;;;;;;6271521;22;46310;-69
2022/11/06 00:58:38;;;;;;;1.17;0.70;;;20.00;78.00;;;;;;6272600;22;45431;-70
2022/11/06 01:01:09;;;;;;;1.00;0.50;;;20.00;77.70;;;;;;6271683;22;45286;-69
2022/11/06 01:03:37;;;;;;;3.05;0.70;;;20.00;77.70;;;;;;6271985;22;45532;-69
2022/11/06 01:06:06;;;;;;;1.63;0.50;;;20.00;77.70;;;;;;6271890;22;47222;-70
2022/11/06 01:08:33;;;;;;;1.50;0.77;;;20.00;77.70;;;;;;6271478;22;45339;-70
2022/11/06 01:11:05;;;;;;;1.25;0.70;;;20.00;77.70;;;;;;6271195;22;45216;-70
2022/11/06 01:13:32;;;;;;;2.00;0.90;;;20.00;77.50;;;;;;6272915;22;45306;-69
2022/11/06 01:16:01;;;;;;;1.33;0.40;;;20.00;77.20;;;;;;6273903;22;48058;-70
2022/11/06 01:18:28;;;;;;;2.85;0.80;;;20.00;77.40;;;;;;6273692;22;45281;-70
2022/11/06 01:20:54;;;;;;;2.35;0.50;;;20.00;77.10;;;;;;6270517;22;45370;-69
2022/11/06 01:23:21;;;;;;;1.40;0.77;;;20.00;77.40;;;;;;6273500;22;45371;-70
2022/11/06 01:25:56;;;;;;;2.35;0.90;;;20.00;77.30;;;;;;6272714;22;47698;-70
2022/11/06 01:28:23;;;;;;;1.10;0.70;;;20.00;77.50;;;;;;6273430;22;45434;-69
2022/11/06 01:30:50;;;;;;;2.22;0.50;;;20.00;77.50;;;;;;6272512;22;45296;-70
2022/11/06 01:33:19;;;;;;;1.52;0.73;;;20.00;77.40;;;;;;6273599;22;45551;-69
2022/11/06 01:35:46;;;;;;;1.60;0.70;;;20.00;77.80;;;;;;6272342;22;45410;-69
2022/11/06 01:38:13;;;;;;;2.05;0.80;;;19.90;77.60;;;;;;6272569;22;45291;-69
2022/11/06 01:40:41;;;;;;;0.50;0.43;;;20.00;78.10;;;;;;6273218;22;45304;-69
2022/11/06 01:43:14;;;;;;;0.95;0.60;;;20.00;78.00;;;;;;6273409;22;45485;-70
2022/11/06 01:45:42;;;;;;;2.30;0.50;;;20.00;78.00;;;;;;6273099;22;45478;-70
2022/11/06 01:48:10;;;;;;;1.02;0.70;;;20.00;78.20;;;;;;6272126;22;45283;-69
2022/11/06 01:50:41;;;;;;;1.00;0.70;;;20.00;78.10;;;;;;6273700;22;45292;-70
2022/11/06 01:53:08;;;;;;;2.25;0.77;;;20.00;78.10;;;;;;6273526;22;45282;-69
2022/11/06 01:55:38;;;;;;;1.98;0.90;;;20.00;78.20;;;;;;6273570;22;48001;-70
2022/11/06 01:58:08;;;;;;;2.15;0.70;;;20.00;78.00;;;;;;6274512;22;45229;-69
2022/11/06 02:00:35;;;;;;;1.13;0.60;;;20.00;78.10;;;;;;6273010;22;45293;-70
2022/11/06 02:03:02;;;;;;;1.52;0.55;;;20.00;77.70;;;;;;6274337;22;45379;-70
2022/11/06 02:05:29;;;;;;;1.95;0.70;;;20.00;77.70;;;;;;6273632;22;46348;-70
2022/11/06 02:08:00;;;;;;;2.90;0.63;;;20.00;77.30;;;;;;6273929;22;45168;-69
2022/11/06 02:10:27;;;;;;;1.48;0.70;;;20.00;77.30;;;;;;6273135;22;45316;-70
2022/11/06 02:13:03;;;;;;;1.00;0.60;;;20.00;77.10;;;;;;6274537;22;45203;-69
2022/11/06 02:15:39;;;;;;;2.47;0.80;;;19.90;76.80;;;;;;6274220;22;46290;-70
2022/11/06 02:18:21;;;;;;;1.73;0.60;;;19.90;76.90;;;;;;6273891;22;45306;-69
2022/11/06 02:21:09;;;;;;;1.23;0.60;;;20.00;77.90;;;;;;6273234;22;45223;-69
2022/11/06 02:23:56;;;;;;;1.75;0.60;;;19.90;76.90;;;;;;6273698;22;45401;-70
2022/11/06 02:26:47;;;;;;;1.63;0.60;;;19.90;76.90;;;;;;6274239;22;46460;-69
2022/11/06 02:29:22;;;;;;;1.35;0.50;;;20.00;76.60;;;;;;6267572;22;45417;-69
2022/11/06 02:31:52;;;;;;;1.25;0.63;;;19.90;76.70;;;;;;6274426;22;45262;-70
2022/11/06 02:34:23;;;;;;;1.65;0.60;;;19.90;76.80;;;;;;6273939;22;45347;-70
2022/11/06 02:36:53;;;;;;;2.75;0.70;;;20.00;77.10;;;;;;6274036;22;47517;-70
2022/11/06 02:39:22;;;;;;;1.60;0.60;;;20.00;77.10;;;;;;6272319;22;45168;-70
2022/11/06 02:41:51;;;;;;;2.15;0.75;;;20.00;76.80;;;;;;6273048;22;45439;-70
2022/11/06 02:44:24;;;;;;;0.75;0.50;;;20.00;77.00;;;;;;6273496;22;45326;-70
2022/11/06 02:46:53;;;;;;;2.05;1.02;;;20.00;77.30;;;;;;6273984;22;46535;-70
2022/11/06 02:49:25;;;;;;;1.35;0.52;;;20.00;76.90;;;;;;6272017;22;45707;-70
2022/11/06 02:51:56;;;;;;;1.10;0.57;;;20.00;77.10;;;;;;6273949;22;45287;-70
2022/11/06 02:54:26;;;;;;;0.77;0.45;;;20.00;77.10;;;;;;6274194;22;45457;-70
2022/11/06 02:56:57;;;;;;;2.35;0.60;;;20.00;77.10;;;;;;6273492;22;46270;-70
2022/11/06 02:59:30;;;;;;;0.82;0.68;;;20.00;76.80;;;;;;6273875;22;46095;-70
2022/11/06 03:02:00;;;;;;;1.48;0.50;;;20.00;77.10;;;;;;6273304;22;45222;-70
2022/11/06 03:04:30;;;;;;;0.88;0.60;;;20.00;76.80;;;;;;6274556;22;45282;-69
2022/11/06 03:07:03;;;;;;;0.82;0.40;;;20.00;76.80;;;;;;6273477;22;46237;-71
2022/11/06 03:09:32;;;;;;;1.25;0.70;;;20.00;76.50;;;;;;6273076;22;45227;-69
2022/11/06 03:12:04;;;;;;;0.77;0.50;;;20.00;76.40;;;;;;6274138;22;45229;-70
2022/11/06 03:14:36;;;;;;;1.75;0.60;;;19.90;76.20;;;;;;6273453;22;45338;-70
2022/11/06 03:17:10;;;;;;;1.65;0.63;;;19.90;76.20;;;;;;6273420;22;48589;-70
2022/11/06 03:19:47;;;;;;;1.65;0.50;;;19.90;75.90;;;;;;6272596;22;45283;-70
2022/11/06 03:22:18;;;;;;;2.00;0.60;;;19.90;75.90;;;;;;6274123;22;45251;-69
2022/11/06 03:24:50;;;;;;;2.03;0.70;;;20.00;76.10;;;;;;6273758;22;45244;-70
2022/11/06 03:27:20;;;;;;;0.85;0.50;;;19.90;76.10;;;;;;6273972;22;46572;-70
2022/11/06 03:29:51;;;;;;;0.32;0.32;;;19.90;76.10;;;;;;6272731;22;46078;-70
2022/11/06 03:32:23;;;;;;;0.80;0.60;;;19.90;75.80;;;;;;6274063;22;45405;-70
2022/11/06 03:34:55;;;;;;;1.40;0.50;;;19.90;75.90;;;;;;6273542;22;45350;-71
2022/11/06 03:37:27;;;;;;;1.08;0.50;;;19.90;76.10;;;;;;6272839;22;46376;-70
2022/11/06 03:39:57;;;;;;;1.08;0.73;;;19.90;76.20;;;;;;6270444;22;45307;-70
2022/11/06 03:42:27;;;;;;;1.73;0.52;;;19.90;76.20;;;;;;6271610;22;45247;-70
2022/11/06 03:44:59;;;;;;;1.58;0.50;;;19.90;76.30;;;;;;6271524;22;45360;-71
2022/11/06 03:47:31;;;;;;;2.33;0.52;;;19.90;76.40;;;;;;6270565;22;46971;-70
2022/11/06 03:50:02;;;;;;;0.80;0.47;;;19.90;76.10;;;;;;6272456;22;45393;-71
2022/11/06 03:52:34;;;;;;;1.27;0.63;;;19.90;76.40;;;;;;6272207;22;45271;-71
2022/11/06 03:55:04;;;;;;;1.95;0.52;;;19.90;76.40;;;;;;6272320;22;45546;-69
2022/11/06 03:57:39;;;;;;;1.15;0.50;;;19.90;76.30;;;;;;6273151;22;48462;-70
2022/11/06 04:00:10;;;;;;;1.52;0.45;;;20.00;76.50;;;;;;6272321;22;45923;-70
2022/11/06 04:02:41;;;;;;;0.73;0.50;;;19.90;76.30;;;;;;6273547;22;45212;-70
2022/11/06 04:05:13;;;;;;;2.13;0.63;;;19.90;76.20;;;;;;6273259;22;45399;-70
2022/11/06 04:13:55;;;;;;;1.42;0.60;;;20.00;76.20;;;;;;6273513;22;47093;-70
2022/11/06 04:16:07;;;;;;;0.60;0.30;;;19.90;75.40;;;;;;6272169;22;45475;-70
2022/11/06 04:18:34;;;;;;;1.30;1.20;;;19.90;75.40;;;;;;6271880;22;47371;-70
2022/11/06 04:21:24;;;;;;;0.80;0.40;;;19.90;75.50;;;;;;6272149;22;45387;-70
2022/11/06 04:27:00;;;;;;;0.98;0.50;;;19.90;75.40;;;;;;6273176;22;45275;-70
2022/11/06 04:29:38;;;;;;;1.65;0.63;;;19.90;75.10;;;;;;6272510;22;45258;-70
2022/11/06 04:32:12;;;;;;;1.60;0.57;;;19.90;75.20;;;;;;6272466;22;45294;-70
2022/11/06 04:34:46;;;;;;;1.75;0.60;;;19.90;75.00;;;;;;6271416;22;45466;-70
2022/11/06 04:37:21;;;;;;;1.13;0.50;;;19.90;75.30;;;;;;6273223;22;45542;-70
2022/11/06 04:39:55;;;;;;;1.38;0.63;;;19.90;75.30;;;;;;6272296;22;46245;-70
2022/11/06 04:42:28;;;;;;;0.38;0.30;;;19.90;75.50;;;;;;6273125;22;45320;-70
2022/11/06 04:45:02;;;;;;;0.93;0.57;;;19.90;75.70;;;;;;6272580;22;45315;-70
2022/11/06 04:47:31;;;;;;;1.27;0.43;;;19.90;75.90;;;;;;6272605;22;45330;-70
2022/11/06 04:50:00;;;;;;;1.67;0.50;;;19.90;75.90;;;;;;6273408;22;48110;-70
2022/11/06 04:52:28;;;;;;;1.08;0.38;;;19.90;75.90;;;;;;6274545;22;45919;-70
2022/11/06 04:54:57;;;;;;;1.42;0.57;;;19.90;75.60;;;;;;6274536;22;45251;-70
2022/11/06 04:57:25;;;;;;;0.47;0.45;;;19.90;75.80;;;;;;6274568;22;45347;-70
2022/11/06 04:59:53;;;;;;;0.55;0.30;;;19.90;75.80;;;;;;6273480;22;46689;-70
2022/11/06 05:02:19;;;;;;;1.23;0.52;;;19.90;75.80;;;;;;6273768;22;45422;-70
2022/11/06 05:04:48;;;;;;;1.90;0.60;;;19.90;75.80;;;;;;6275089;22;45331;-69
2022/11/06 05:07:16;;;;;;;0.70;0.52;;;19.90;75.60;;;;;;6274001;22;45407;-70
2022/11/06 05:09:44;;;;;;;1.08;0.40;;;19.90;75.40;;;;;;6273614;22;46592;-70
2022/11/06 05:12:11;;;;;;;1.05;0.55;;;19.90;75.50;;;;;;6273836;22;45212;-71
2022/11/06 05:14:38;;;;;;;0.52;0.40;;;19.90;75.20;;;;;;6274556;22;45327;-71
2022/11/06 05:17:04;;;;;;;0.60;0.50;;;19.90;75.10;;;;;;6274755;22;45335;-70
2022/11/06 05:19:31;;;;;;;1.88;0.50;;;19.90;75.00;;;;;;6272922;22;47531;-70
2022/11/06 05:24:44;;;;;;;0.65;0.38;;;19.90;74.70;;;;;;6274241;22;45379;-70
2022/11/06 05:27:10;;;;;;;1.23;0.60;;;19.90;74.90;;;;;;6274697;22;45301;-70
2022/11/06 05:29:37;;;;;;;1.23;0.43;;;19.90;74.70;;;;;;6272954;22;46995;-70
2022/11/06 05:32:04;;;;;;;0.80;0.50;;;19.90;74.60;;;;;;6274285;22;45282;-70
2022/11/06 05:34:32;;;;;;;0.98;0.47;;;19.90;74.40;;;;;;6274524;22;45315;-70
2022/11/06 05:37:00;;;;;;;1.08;0.40;;;19.90;74.70;;;;;;6274067;22;45430;-70
2022/11/06 05:39:26;;;;;;;1.13;0.40;;;19.90;74.80;;;;;;6273324;22;46375;-70
2022/11/06 05:41:53;;;;;;;1.15;0.50;;;19.90;75.10;;;;;;6273915;22;45362;-70
2022/11/06 05:44:20;;;;;;;0.88;0.40;;;19.90;75.30;;;;;;6274676;22;45483;-70
2022/11/06 05:46:47;;;;;;;1.52;0.50;;;19.90;75.20;;;;;;6274093;22;45422;-70
2022/11/06 05:49:14;;;;;;;0.80;0.30;;;19.90;75.20;;;;;;6272886;22;45261;-70
2022/11/06 05:51:40;;;;;;;1.67;0.45;;;19.90;75.30;;;;;;6273123;22;45235;-70
2022/11/06 05:54:08;;;;;;;1.38;0.50;;;19.90;75.30;;;;;;6273610;22;45152;-70
2022/11/06 05:56:35;;;;;;;1.45;0.50;;;19.90;75.40;;;;;;6274219;22;45513;-69
2022/11/06 05:59:02;;;;;;;0.63;0.50;;;19.90;75.30;;;;;;6273178;22;47445;-71
2022/11/06 06:01:29;;;;;;;2.50;0.50;;;19.90;75.50;;;;;;6273010;22;45205;-71
2022/11/06 06:03:56;;;;;;;0.70;0.50;;;19.90;75.50;;;;;;6274036;22;45240;-70
2022/11/06 06:06:22;;;;;;;0.70;0.40;;;19.90;75.30;;;;;;6274086;22;45283;-70
2022/11/06 06:08:49;;;;;;;0.68;0.40;;;19.90;75.20;;;;;;6273846;22;47492;-71
2022/11/06 06:11:17;;;;;;;1.25;0.52;;;19.90;75.10;;;;;;6273701;22;45280;-70
2022/11/06 06:13:44;;;;;;;1.73;0.47;;;19.90;75.00;;;;;;6274534;22;45468;-70
2022/11/06 06:16:11;;;;;;;0.85;0.55;;;19.90;74.90;;;;;;6273689;22;45248;-70
2022/11/06 06:18:37;;;;;;;0.73;0.40;;;19.90;74.70;;;;;;6273746;22;46597;-70
2022/11/06 06:21:05;;;;;;;1.13;0.60;;;19.90;74.60;;;;;;6272993;22;45310;-70
2022/11/06 06:23:31;;;;;;;0.98;0.52;;;19.90;74.70;;;;;;6273505;22;45474;-70
2022/11/06 06:25:58;;;;;;;0.75;0.40;;;19.90;74.60;;;;;;6273438;22;45397;-70
2022/11/06 06:28:26;;;;;;;0.50;0.43;;;19.90;74.50;;;;;;6273546;22;46272;-70
2022/11/06 06:30:53;;;;;;;0.70;0.40;;;19.90;74.60;;;;;;6272518;22;45263;-70
2022/11/06 06:33:20;;;;;;;0.30;0.30;;;19.90;74.30;;;;;;6273347;22;45294;-70
2022/11/06 06:35:46;;;;;;;0.95;0.30;;;19.90;75.40;;;;;;6274558;22;45362;-70
2022/11/06 06:38:13;;;;;;;0.90;0.30;;;19.90;74.70;;;;;;6273721;22;46567;-70
2022/11/06 06:40:40;;;;;;;1.35;0.45;;;19.90;74.70;;;;;;6273586;22;45331;-70
2022/11/06 06:43:07;;;;;;;1.80;0.32;;;19.90;74.90;;;;;;6274198;22;45240;-71
2022/11/06 06:45:35;;;;;;;1.17;0.55;;;19.90;75.00;;;;;;6273915;22;45307;-70
2022/11/06 06:48:03;;;;;;;0.45;0.40;;;19.90;74.90;;;;;;6272462;22;45388;-70
2022/11/06 06:50:29;;;;;;;1.15;0.50;;;19.90;75.10;;;;;;6272461;22;45246;-70
2022/11/06 06:52:57;;;;;;;0.77;0.50;;;19.90;74.90;;;;;;6274103;22;45212;-69
2022/11/06 06:55:24;;;;;;;0.75;0.50;;;19.90;74.90;;;;;;6273632;22;45257;-70
2022/11/06 06:57:56;;;;;;;0.45;0.45;;;19.90;74.90;;;;;;6273291;22;47525;-70
2022/11/06 07:00:23;;;;;;;0.40;0.30;;;19.90;74.90;;;;;;6272792;22;45385;-70
2022/11/06 07:02:51;;;;;;;0.73;0.45;;;19.90;75.10;;;;;;6273301;22;45307;-70
2022/11/06 07:05:18;;;;;;;1.92;0.32;;;19.90;74.00;;;;;;6274031;22;45296;-71
2022/11/06 07:07:45;;;;;;;1.33;0.52;;;19.80;73.00;;;;;;6267413;22;46754;-69
2022/11/06 07:10:12;;;;;;;0.70;0.40;;;19.90;74.30;;;;;;6272463;22;45388;-71
2022/11/06 07:12:39;;;;;;;1.85;0.50;;;19.90;72.90;;;;;;6274103;22;45332;-70
2022/11/06 07:15:07;;;;;;;2.25;0.57;;;19.80;71.80;;;;;;6273282;22;45254;-70
2022/11/06 07:17:34;;;;;;;2.35;0.50;;;19.80;70.80;;;;;;6273594;22;47501;-70
2022/11/06 07:20:03;;;;;;;1.45;0.50;;;19.80;70.70;;;;;;6272775;22;45260;-70
2022/11/06 07:22:30;;;;;;;1.35;0.50;;;19.80;70.80;;;;;;6274194;22;45307;-69
2022/11/06 07:24:56;;;;;;;1.95;0.80;;;19.80;71.10;;;;;;6273267;22;45441;-70
2022/11/06 07:27:23;;;;;;;2.63;0.65;;;19.80;70.80;;;;;;6273186;22;46539;-69
2022/11/06 07:29:50;;;;;;;1.70;0.50;;;19.80;70.50;;;;;;6272240;22;45808;-70
2022/11/06 07:32:17;;;;;;;2.58;0.30;;;19.80;70.80;;;;;;6273172;22;45252;-69
2022/11/06 07:34:43;;;;;;;0.77;0.40;;;19.80;70.40;;;;;;6273805;22;45216;-69
2022/11/06 07:37:12;;;;;;;0.77;0.47;;;19.80;71.20;;;;;;6272961;22;47123;-69
2022/11/06 07:39:39;;;;;;;1.50;0.40;;;19.80;71.50;;;;;;6272036;22;45287;-70
2022/11/06 07:42:06;;;;;;;1.08;0.68;;;19.80;72.20;;;;;;6272306;22;45231;-70
2022/11/06 07:44:32;;;;;;;0.93;0.50;;;19.80;72.20;;;;;;6272906;22;45228;-68
2022/11/06 07:46:59;;;;;;;0.60;0.50;;;19.80;72.50;;;;;;6272653;22;48021;-70
2022/11/06 07:49:26;;;;;;;1.17;0.50;;;19.80;73.30;;;;;;6270931;22;45311;-71
2022/11/06 07:51:53;;;;;;;28.65;1.98;;;19.80;73.30;;;;;;6271217;22;45247;-69
2022/11/06 07:54:22;;;;;;;10.48;0.80;;;19.90;73.80;;;;;;6272492;22;45501;-69
2022/11/06 07:56:48;;;;;;;4.97;0.77;;;19.90;73.90;;;;;;6273347;22;47565;-68
2022/11/06 07:59:15;;;;;;;2.67;0.57;;;19.90;73.60;;;;;;6273332;22;45332;-69
2022/11/06 08:01:42;;;;;;;4.53;0.60;;;19.90;74.00;;;;;;6271488;22;45562;-66
2022/11/06 08:04:09;;;;;;;2.30;0.68;;;19.90;74.00;;;;;;6273475;22;45438;-67
2022/11/06 08:06:36;;;;;;;2.55;0.73;;;19.90;75.40;;;;;;6270756;22;47489;-68
2022/11/06 08:09:05;;;;;;;3.50;0.60;;;19.90;75.40;;;;;;6273024;22;45172;-68
2022/11/06 08:11:34;;;;;;;3.50;0.60;;;19.90;75.40;;;;;;6272463;22;45485;-68
2022/11/06 08:14:01;;;;;;;1.40;0.50;;;19.90;74.70;;;;;;6273269;22;45354;-68
2022/11/06 08:16:28;;;;;;;1.02;0.52;;;19.90;74.60;;;;;;6272586;22;46416;-68
2022/11/06 08:18:55;;;;;;;0.93;0.35;;;19.90;74.70;;;;;;6272360;22;45311;-69
2022/11/06 08:21:22;;;;;;;1.65;0.70;;;19.90;74.50;;;;;;6272102;22;45265;-69
2022/11/06 08:23:49;;;;;;;1.65;0.60;;;19.90;74.40;;;;;;6273849;22;45341;-69
2022/11/06 08:26:16;;;;;;;2.90;0.52;;;19.90;75.40;;;;;;6274174;22;46277;-69
2022/11/06 08:28:44;;;;;;;1.00;0.47;;;19.90;74.20;;;;;;6274431;22;45261;-68
2022/11/06 08:31:11;;;;;;;1.95;0.52;;;19.90;74.00;;;;;;6273221;22;45368;-69
2022/11/06 08:33:39;;;;;;;1.58;0.50;;;19.90;74.00;;;;;;6273763;22;45462;-68
2022/11/06 08:36:07;;;;;;;1.75;0.68;;;19.90;74.20;;;;;;6273309;22;46607;-68
2022/11/06 08:38:35;;;;;;;1.92;0.75;;;19.90;74.20;;;;;;6274850;22;45667;-69
2022/11/06 08:41:05;;;;;;;0.63;0.40;;;19.90;74.10;;;;;;6273523;22;45348;-68
2022/11/06 08:43:32;;;;;;;1.55;0.40;;;19.90;74.10;;;;;;6274046;22;45572;-69
2022/11/06 08:46:01;;;;;;;1.27;0.50;;;19.90;74.10;;;;;;6274825;22;48035;-69
2022/11/06 08:48:27;;;;;;;1.17;0.55;;;19.90;74.00;;;;;;6272728;22;45213;-69
2022/11/06 08:50:54;;;;;;;0.35;0.32;;;20.00;74.00;;;;;;6274331;22;45272;-69
2022/11/06 08:53:21;;;;;;;3.17;0.50;;;20.00;74.20;;;;;;6274353;22;45377;-69
2022/11/06 08:55:48;;;;;;;1.58;0.45;;;20.00;74.00;;;;;;6274137;22;48703;-69
2022/11/06 08:58:15;;;;;;;1.75;0.40;;;20.00;74.00;;;;;;6274588;22;45278;-68
2022/11/06 09:00:42;;;;;;;2.47;0.70;;;20.00;73.70;;;;;;6273476;22;45557;-68
2022/11/06 09:03:12;;;;;;;0.77;0.40;;;20.00;73.90;;;;;;6274796;22;45504;-68
2022/11/06 09:05:40;;;;;;;0.68;0.40;;;20.00;73.80;;;;;;6273838;22;47024;-69
2022/11/06 09:08:08;;;;;;;1.67;0.70;;;20.00;73.60;;;;;;6274485;22;45202;-69
2022/11/06 09:10:36;;;;;;;0.88;0.40;;;20.00;73.50;;;;;;6273459;22;45381;-69
2022/11/06 09:13:03;;;;;;;2.00;0.55;;;20.00;73.50;;;;;;6274678;22;45227;-69
2022/11/06 09:15:30;;;;;;;0.93;0.45;;;20.00;73.60;;;;;;6273860;22;48473;-69
2022/11/06 09:17:57;;;;;;;1.70;0.70;;;20.00;73.80;;;;;;6273939;22;45288;-69
2022/11/06 09:20:26;;;;;;;0.77;0.47;;;20.00;74.10;;;;;;6273686;22;45267;-69
2022/11/06 09:22:53;;;;;;;0.63;0.50;;;19.90;74.00;;;;;;6273655;22;45283;-69
2022/11/06 09:25:21;;;;;;;3.22;0.70;;;20.00;74.20;;;;;;6274353;22;47589;-69
2022/11/06 09:27:49;;;;;;;0.82;0.55;;;20.00;74.30;;;;;;6273975;22;45331;-69
2022/11/06 09:30:19;;;;;;;0.82;0.50;;;19.90;74.40;;;;;;6273718;22;45296;-68
2022/11/06 09:32:47;;;;;;;1.00;0.50;;;20.00;74.50;;;;;;6273749;22;45393;-69
2022/11/06 09:35:14;;;;;;;1.00;0.50;;;19.90;74.50;;;;;;6273661;22;46337;-69
2022/11/06 09:37:42;;;;;;;1.42;0.70;;;20.00;74.80;;;;;;6274124;22;45206;-69
2022/11/06 09:40:19;;;;;;;0.57;0.30;;;19.90;74.80;;;;;;6269799;22;45488;-69
2022/11/06 09:42:56;;;;;;;0.75;0.32;;;20.00;74.60;;;;;;6274558;22;45537;-69
2022/11/06 09:45:26;;;;;;;1.05;0.50;;;20.00;74.70;;;;;;6273580;22;48048;-69
2022/11/06 09:48:00;;;;;;;2.15;0.57;;;20.00;74.60;;;;;;6273009;22;45239;-69
2022/11/06 09:50:31;;;;;;;1.13;0.40;;;20.00;74.80;;;;;;6273106;22;45463;-68
2022/11/06 09:53:06;;;;;;;1.45;0.40;;;20.00;74.60;;;;;;6274742;22;45476;-69
2022/11/06 09:55:38;;;;;;;2.05;0.60;;;20.00;74.50;;;;;;6273672;22;46231;-69
2022/11/06 09:58:11;;;;;;;0.50;0.30;;;20.00;74.50;;;;;;6274307;22;45235;-68
2022/11/06 10:00:38;;;;;;;1.45;0.40;;;20.00;74.40;;;;;;6272843;22;45296;-69
2022/11/06 10:03:12;;;;;;;3.00;0.65;;;20.00;74.50;;;;;;6274524;22;45422;-69
2022/11/06 10:05:41;;;;;;;0.80;0.40;;;20.00;74.40;;;;;;6274090;22;47103;-68
2022/11/06 10:08:16;;;;;;;0.77;0.30;;;20.00;74.50;;;;;;6271978;22;45413;-69
2022/11/06 10:10:52;;;;;;;0.82;0.50;;;20.00;74.40;;;;;;6273416;22;45243;-69
2022/11/06 10:13:33;;;;;;;0.95;0.40;;;20.00;74.50;;;;;;6274305;22;45450;-69
2022/11/06 10:16:05;;;;;;;1.70;0.55;;;20.00;74.30;;;;;;6274328;22;47430;-69
2022/11/06 10:18:43;;;;;;;0.75;0.30;;;20.00;74.30;;;;;;6271834;22;45268;-69
2022/11/06 10:21:15;;;;;;;0.93;0.38;;;20.00;74.30;;;;;;6273757;22;45168;-69
2022/11/06 10:23:50;;;;;;;1.77;0.60;;;20.00;74.10;;;;;;6273833;22;45252;-69
2022/11/06 10:26:18;;;;;;;0.95;0.60;;;20.00;74.10;;;;;;6274179;22;48099;-69
2022/11/06 10:28:58;;;;;;;1.02;0.30;;;20.00;74.20;;;;;;6273830;22;45218;-69
2022/11/06 10:31:33;;;;;;;1.55;0.60;;;20.00;74.20;;;;;;6273251;22;45306;-69
2022/11/06 10:34:02;;;;;;;0.68;0.40;;;20.00;74.20;;;;;;6274667;22;45282;-69
2022/11/06 10:36:35;;;;;;;1.38;0.50;;;20.00;74.20;;;;;;6273333;22;46037;-69
2022/11/06 10:39:10;;;;;;;1.65;0.38;;;20.00;74.10;;;;;;6274237;22;45384;-69
2022/11/06 10:41:38;;;;;;;0.88;0.50;;;20.00;74.20;;;;;;6272819;22;45228;-69
2022/11/06 10:44:07;;;;;;;0.40;0.30;;;20.00;74.00;;;;;;6274259;22;45529;-69
2022/11/06 10:46:37;;;;;;;0.40;0.30;;;20.00;74.10;;;;;;6273251;22;45258;-69
2022/11/06 10:49:11;;;;;;;0.50;0.30;;;20.00;74.40;;;;;;6272339;22;45340;-68
2022/11/06 10:51:57;;;;;;;0.40;0.40;;;20.10;74.50;;;;;;6272871;22;45431;-69
2022/11/06 10:54:45;;;;;;;0.98;0.35;;;20.00;74.40;;;;;;6274167;22;45159;-69
2022/11/06 10:57:24;;;;;;;1.50;0.50;;;20.00;74.40;;;;;;6273633;22;46309;-69
2022/11/06 10:59:52;;;;;;;0.93;0.47;;;20.00;74.30;;;;;;6273116;22;45303;-69
2022/11/06 11:02:26;;;;;;;0.85;0.30;;;20.10;74.50;;;;;;6274119;22;45270;-69
2022/11/06 11:04:53;;;;;;;0.73;0.43;;;20.00;73.90;;;;;;6273848;22;45554;-69
2022/11/06 11:07:19;;;;;;;0.63;0.38;;;20.10;74.10;;;;;;6270712;22;47581;-69
2022/11/06 11:09:49;;;;;;;1.48;0.60;;;20.10;74.00;;;;;;6273161;22;45359;-69
2022/11/06 11:12:22;;;;;;;0.40;0.32;;;20.00;73.80;;;;;;6273603;22;45321;-69
2022/11/06 11:15:15;;;;;;;1.17;0.40;;;20.00;73.70;;;;;;6273290;22;45456;-69
2022/11/06 11:17:43;;;;;;;1.25;0.40;;;20.00;73.90;;;;;;6273718;22;48001;-69
2022/11/06 11:20:37;;;;;;;0.82;0.52;;;20.00;73.80;;;;;;6272810;22;45559;-69
2022/11/06 11:23:14;;;;;;;1.20;0.43;;;20.00;73.80;;;;;;6202592;22;45316;-69
2022/11/06 11:25:44;;;;;;;0.40;0.30;;;20.00;73.80;;;;;;6273913;22;45417;-69
2022/11/06 11:28:21;;;;;;;0.40;0.28;;;20.00;73.80;;;;;;6273970;22;48047;-69
2022/11/06 11:30:52;;;;;;;0.95;0.30;;;20.00;73.80;;;;;;6272976;22;45298;-69
2022/11/06 11:33:23;;;;;;;0.60;0.30;;;20.00;73.80;;;;;;6273815;22;45214;-69
2022/11/06 11:35:51;;;;;;;1.27;0.60;;;20.00;73.70;;;;;;6273827;22;45371;-69
2022/11/06 11:38:20;;;;;;;1.75;0.30;;;20.00;73.80;;;;;;6273135;22;46570;-69
2022/11/06 11:40:50;;;;;;;0.55;0.30;;;20.00;74.00;;;;;;6272815;22;45395;-69
2022/11/06 11:43:25;;;;;;;1.75;0.40;;;20.00;74.00;;;;;;6273347;22;45315;-69
2022/11/06 11:46:19;;;;;;;0.57;0.40;;;20.00;74.30;;;;;;6273970;22;45356;-69
2022/11/06 11:48:47;;;;;;;0.22;0.20;;;20.00;74.10;;;;;;6243739;22;48089;-69
2022/11/06 11:51:28;;;;;;;1.23;0.55;;;20.00;74.10;;;;;;6272831;22;45217;-69
2022/11/06 11:53:57;;;;;;;1.27;0.28;;;20.00;73.90;;;;;;6273305;22;45303;-69
2022/11/06 11:56:27;;;;;;;0.70;0.38;;;20.00;73.80;;;;;;6272934;22;45243;-69
2022/11/06 11:58:56;;;;;;;0.50;0.30;;;20.00;73.90;;;;;;6273790;22;47323;-69
2022/11/06 12:01:36;;;;;;;0.30;0.30;;;20.10;74.00;;;;;;6271960;22;45247;-69
2022/11/06 12:04:10;;;;;;;0.85;0.50;;;20.10;73.80;;;;;;6273663;22;45298;-69
2022/11/06 12:06:48;;;;;;;1.00;0.50;;;20.00;73.60;;;;;;6272937;22;45277;-69
2022/11/06 12:09:16;;;;;;;1.20;0.60;;;20.10;74.00;;;;;;6273861;22;46275;-68
2022/11/06 12:11:44;;;;;;;0.50;0.50;;;20.00;73.80;;;;;;6272620;22;45277;-69
2022/11/06 12:14:29;;;;;;;0.88;0.30;;;20.00;73.70;;;;;;6273425;22;45251;-69
2022/11/06 12:17:02;;;;;;;0.70;0.52;;;20.00;73.60;;;;;;6273379;22;45413;-69
2022/11/06 12:19:31;;;;;;;0.93;0.32;;;20.00;74.00;;;;;;6273180;22;45241;-69
2022/11/06 12:22:03;;;;;;;1.42;0.52;;;20.00;73.90;;;;;;6272169;22;46355;-69
2022/11/06 12:24:35;;;;;;;2.20;0.57;;;20.00;73.80;;;;;;6273583;22;45312;-69
2022/11/06 12:27:09;;;;;;;0.75;0.60;;;20.00;73.80;;;;;;6273981;22;45288;-69
2022/11/06 12:29:40;;;;;;;1.73;0.63;;;20.00;73.90;;;;;;6272786;22;45580;-69
2022/11/06 12:32:22;;;;;;;2.10;0.40;;;20.00;74.00;;;;;;6272773;22;45160;-69
2022/11/06 12:34:57;;;;;;;0.55;0.50;;;20.00;73.80;;;;;;6273074;22;45244;-69
2022/11/06 12:37:35;;;;;;;0.85;0.40;;;20.00;74.20;;;;;;6273392;22;45225;-69
2022/11/06 12:40:14;;;;;;;0.73;0.40;;;20.00;74.10;;;;;;6272116;22;47066;-69
2022/11/06 12:42:53;;;;;;;0.63;0.52;;;20.10;74.30;;;;;;6273153;22;45303;-69
2022/11/06 12:45:21;;;;;;;0.45;0.40;;;20.00;74.20;;;;;;6273164;22;45272;-69
2022/11/06 12:47:57;;;;;;;1.08;0.63;;;20.00;74.10;;;;;;6270432;22;45282;-69
2022/11/06 12:50:35;;;;;;;0.77;0.45;;;20.10;74.10;;;;;;6271891;22;46062;-69
2022/11/06 12:53:25;;;;;;;0.80;0.50;;;20.10;74.20;;;;;;6273185;22;45796;-69
2022/11/06 12:55:59;;;;;;;0.93;0.38;;;20.10;74.00;;;;;;6272694;22;45275;-69
2022/11/06 12:58:49;;;;;;;0.75;0.43;;;20.00;74.20;;;;;;6273366;22;45169;-69
2022/11/06 13:01:24;;;;;;;0.77;0.40;;;20.00;74.00;;;;;;6271983;22;45363;-69
2022/11/06 13:04:07;;;;;;;1.05;0.50;;;20.00;74.20;;;;;;6272935;22;45722;-69
2022/11/06 13:07:04;;;;;;;1.25;0.40;;;20.00;74.00;;;;;;6271311;22;45257;-69
2022/11/06 13:09:37;;;;;;;1.45;0.60;;;20.00;73.90;;;;;;6269006;22;45552;-69
2022/11/06 13:12:11;;;;;;;1.73;0.40;;;20.00;74.00;;;;;;6268403;22;45631;-70
2022/11/06 13:14:45;;;;;;;1.75;0.47;;;20.00;74.20;;;;;;6269268;22;45517;-69
2022/11/06 13:17:18;;;;;;;0.47;0.45;;;20.00;73.80;;;;;;6272642;22;45697;-69